Date,TemperatureHighF,TemperatureAvgF,TemperatureLowF,DewpointHighF,DewpointAvgF,DewpointLowF,HumidityHigh,HumidityAvg,HumidityLow,PressureMaxIn,PressureMinIn,WindSpeedMaxMPH,WindSpeedAvgMPH,GustSpeedMaxMPH,PrecipitationSumIn
2013-1-1,31,26,19,31,23,13,97,86,78,0.00,40.00,10,4,16,7.70
2013-1-2,24,18,13,16,13,9,91,81,65,0.00,40.00,6,2,11,0.00
2013-1-3,30,21,10,24,16,8,92,81,56,0.00,40.00,10,5,19,0.00
2013-1-4,31,27,24,24,19,15,89,71,53,0.00,40.00,12,6,31,9.90
2013-1-5,35,29,23,26,22,18,86,76,64,0.00,40.00,11,6,17,0.00
2013-1-6,37,34,30,33,30,26,94,84,71,0.00,40.00,9,5,19,18.86
2013-1-7,38,31,29,29,26,23,94,81,56,0.00,40.00,16,6,24,7.70
2013-1-8,45,34,26,30,25,22,88,72,40,0.00,40.00,11,6,16,0.00
2013-1-9,48,41,35,40,32,28,90,71,55,0.00,40.00,13,7,25,2.20
2013-1-10,42,36,28,31,29,26,96,76,55,0.00,40.00,9,4,19,4.40
2013-1-11,58,49,41,54,44,26,97,82,51,0.00,40.00,17,8,30,7.19
2013-1-12,61,55,50,58,53,48,97,91,79,0.00,40.00,13,6,20,0.00
2013-1-13,65,53,37,60,52,36,98,93,78,0.00,40.00,17,7,30,8.96
2013-1-14,37,30,26,36,25,19,98,82,68,0.00,40.00,12,4,23,0.00
2013-1-15,34,28,26,24,21,18,80,74,54,0.00,40.00,6,3,12,0.00
2013-1-16,34,31,28,25,24,20,84,72,57,0.00,40.00,9,3,17,0.00
2013-1-17,36,33,26,31,25,16,86,73,62,0.00,40.00,14,5,26,0.00
2013-1-18,35,27,19,19,15,8,79,59,46,0.00,40.00,19,8,30,2.24
2013-1-19,51,44,35,27,24,20,54,45,39,0.00,40.00,17,10,30,0.00
2013-1-20,47,29,19,33,16,10,79,59,45,0.00,40.00,17,8,35,4.48
2013-1-21,23,17,9,14,10,3,88,72,56,0.00,40.00,12,5,25,5.58
2013-1-22,13,8,5,6,2,-1,89,77,59,0.00,40.00,11,5,21,6.17
2013-1-23,17,11,5,12,6,0,91,79,62,0.00,40.00,6,3,14,7.23
2013-1-24,21,15,10,14,9,3,96,76,48,0.00,40.00,12,4,21,3.30
2013-1-25,19,16,13,17,12,7,95,85,71,0.00,40.00,8,4,13,21.29
2013-1-26,26,22,18,23,18,13,97,85,70,0.00,40.00,9,3,17,10.53
2013-1-27,31,23,10,25,16,8,93,74,54,0.00,40.00,13,5,17,2.20
2013-1-28,49,42,30,49,41,24,98,96,80,0.00,40.00,20,8,27,6.73
2013-1-29,60,53,41,57,51,41,98,93,76,0.00,40.00,19,8,29,0.00
2013-1-30,62,56,37,56,52,35,97,86,74,0.00,40.00,23,13,37,5.62
2013-1-31,37,24,17,35,16,6,95,73,59,0.00,40.00,12,8,30,6.68
2013-2-1,17,15,12,11,8,5,86,73,59,0.00,40.00,11,6,21,14.55
2013-2-2,24,18,13,22,14,6,96,86,70,0.00,40.00,10,4,20,15.02
2013-2-3,25,19,16,21,16,11,97,86,60,0.00,40.00,8,4,19,16.67
2013-2-4,26,21,17,23,18,13,95,90,85,0.00,40.00,7,3,12,21.31
2013-2-5,32,26,22,26,22,17,97,85,57,0.00,40.00,6,2,13,4.40
2013-2-6,34,27,20,27,17,9,96,69,38,0.00,40.00,9,3,20,2.20
2013-2-7,46,34,21,30,23,16,79,64,47,0.00,40.00,12,6,19,0.00
2013-2-8,42,32,25,39,29,22,98,90,70,0.00,40.00,16,10,30,25.71
2013-2-9,35,27,22,23,20,17,92,78,49,0.00,40.00,12,4,21,2.75
2013-2-10,49,37,25,32,20,17,81,52,31,0.00,40.00,20,8,31,0.00
2013-2-11,52,42,33,46,34,24,96,75,58,0.00,40.00,20,10,35,11.75
2013-2-12,38,32,26,27,24,23,91,73,62,0.00,40.00,12,4,20,29.35
2013-2-13,35,29,26,28,26,24,94,85,65,0.00,40.00,10,2,12,23.18
2013-2-14,38,33,26,37,31,25,95,91,77,0.00,40.00,16,8,24,12.77
2013-2-15,36,31,26,30,25,17,88,79,65,0.00,40.00,9,4,20,5.07
2013-2-16,30,24,19,22,17,11,97,75,48,0.00,40.00,8,3,17,12.36
2013-2-17,25,18,11,18,12,6,97,78,49,0.00,40.00,12,4,19,10.06
2013-2-18,46,29,10,31,17,6,82,63,46,0.00,40.00,20,11,30,0.00
2013-2-19,47,31,16,41,28,11,97,86,52,0.00,40.00,21,10,32,11.12
2013-2-20,22,19,16,17,13,8,90,77,57,0.00,40.00,13,6,22,22.96
2013-2-21,23,20,17,19,15,13,95,83,69,0.00,40.00,9,4,16,29.74
2013-2-22,39,30,19,38,27,15,97,90,76,0.00,40.00,15,6,24,1.10
2013-2-23,35,33,29,32,28,24,92,81,67,0.00,40.00,7,4,16,0.00
2013-2-24,33,30,26,26,24,20,82,77,67,0.00,40.00,9,4,16,2.24
2013-2-25,44,32,23,31,24,21,96,74,42,0.00,40.00,11,2,14,0.00
2013-2-26,37,34,28,36,28,24,98,81,64,0.00,40.00,14,6,25,7.28
2013-2-27,42,37,33,40,36,32,97,96,91,0.00,40.00,10,4,19,17.94
2013-2-28,35,32,30,34,32,29,97,96,93,0.00,40.00,12,6,21,7.82
2013-3-1,30,27,25,29,26,24,96,95,90,0.00,40.00,12,8,19,32.02
2013-3-2,28,26,23,26,24,22,96,94,90,0.00,40.00,11,6,17,37.57
2013-3-3,27,24,21,25,22,19,97,92,81,0.00,40.00,9,5,18,28.08
2013-3-4,36,26,15,26,21,14,96,83,58,0.00,40.00,9,2,13,0.55
2013-3-5,45,31,19,28,22,18,94,72,40,0.00,40.00,9,4,16,0.00
2013-3-6,44,37,31,34,31,28,96,78,60,0.00,40.00,11,5,20,0.00
2013-3-7,37,33,29,35,32,28,97,95,92,0.00,40.00,9,4,13,7.70
2013-3-8,37,30,24,34,28,24,97,94,86,0.00,40.00,6,3,9,9.90
2013-3-9,54,39,24,33,29,23,97,71,43,0.00,40.00,11,4,15,0.00
2013-3-10,65,58,49,38,36,31,61,44,36,0.00,40.00,15,9,24,4.40
2013-3-11,63,53,41,52,45,36,96,77,36,0.00,40.00,22,10,30,13.92
2013-3-12,42,36,33,39,33,30,94,89,84,0.00,40.00,9,5,19,0.55
2013-3-13,33,30,27,30,26,19,94,86,62,0.00,40.00,15,6,25,2.79
2013-3-14,39,30,23,26,23,18,90,73,53,0.00,40.00,10,6,21,0.00
2013-3-15,44,36,30,38,32,25,97,84,74,0.00,40.00,8,4,17,2.75
2013-3-16,37,32,29,36,32,27,98,97,92,0.00,40.00,9,4,16,7.87
2013-3-17,33,30,26,28,25,21,95,83,68,0.00,40.00,11,4,16,0.00
2013-3-18,46,35,26,45,33,21,97,91,79,0.00,40.00,14,8,27,3.93
2013-3-19,40,31,26,40,24,19,97,77,61,0.00,40.00,15,8,35,8.33
2013-3-20,31,27,21,25,20,14,91,75,58,0.00,40.00,10,5,19,1.65
2013-3-21,29,23,16,26,20,13,95,87,75,0.00,40.00,9,4,17,24.63
2013-3-22,37,29,24,27,24,23,95,84,62,0.00,40.00,7,4,16,19.08
2013-3-23,41,31,21,32,26,20,96,80,59,0.00,40.00,9,2,16,0.00
2013-3-24,36,31,26,27,25,22,94,79,59,0.00,40.00,9,5,19,0.00
2013-3-25,35,33,31,35,32,27,98,95,74,0.00,40.00,9,4,14,21.94
2013-3-26,42,35,31,35,33,30,98,92,70,0.00,40.00,10,4,16,10.07
2013-3-27,43,37,31,33,31,27,97,79,52,0.00,40.00,12,6,21,2.75
2013-3-28,44,39,34,33,31,28,83,73,59,0.00,40.00,12,5,19,0.00
2013-3-29,49,42,33,34,29,22,88,62,35,0.00,40.00,10,4,17,0.00
2013-3-30,58,44,28,29,27,25,90,56,31,0.00,40.00,12,4,21,0.00
2013-3-31,52,48,44,49,36,-100,93,65,43,0.00,40.00,11,6,21,0.00
2013-4-1,47,37,32,44,25,14,97,63,37,0.00,40.00,13,8,27,3.89
2013-4-2,40,32,24,24,18,11,85,56,36,0.00,40.00,11,5,24,0.00
2013-4-3,37,32,24,27,19,14,78,59,44,0.00,40.00,15,5,22,0.00
2013-4-4,58,39,24,20,17,14,68,44,20,0.00,40.00,12,5,15,0.00
2013-4-5,45,40,31,36,26,17,85,57,35,0.00,40.00,13,5,20,0.00
2013-4-6,56,42,26,23,20,16,74,44,25,0.00,40.00,14,6,22,0.00
2013-4-7,74,58,45,48,38,19,83,48,25,0.00,40.00,16,9,29,0.00
2013-4-8,71,57,40,59,48,38,94,74,52,0.00,40.00,17,7,30,0.00
2013-4-9,81,64,47,60,53,46,95,70,48,0.00,40.00,11,5,23,0.00
2013-4-10,74,55,42,70,52,41,98,91,75,0.00,40.00,14,4,28,6.77
2013-4-11,52,46,42,51,46,41,98,97,92,0.00,40.00,11,4,18,12.36
2013-4-12,57,44,40,56,42,34,97,91,73,0.00,40.00,10,4,26,5.08
2013-4-13,43,40,36,39,35,31,92,83,68,0.00,40.00,11,5,27,1.65
2013-4-14,58,45,34,38,34,30,89,67,44,0.00,40.00,7,3,13,7.33
2013-4-15,70,61,53,53,46,37,75,56,48,0.00,40.00,19,9,28,1.69
2013-4-16,68,58,50,62,54,48,97,87,75,0.00,40.00,16,7,28,4.49
2013-4-17,64,55,46,55,43,36,97,68,41,0.00,40.00,10,4,17,0.00
2013-4-18,85,71,61,63,58,53,89,67,35,0.00,40.00,19,11,34,0.00
2013-4-19,71,53,39,62,45,29,97,74,55,0.00,40.00,22,9,32,6.22
2013-4-20,43,38,34,33,28,23,90,67,48,0.00,40.00,11,6,23,1.10
2013-4-21,49,38,29,30,27,24,91,66,38,0.00,40.00,14,3,19,0.00
2013-4-22,66,51,35,37,33,27,75,51,33,0.00,40.00,11,5,17,0.00
2013-4-23,72,59,45,46,37,28,60,43,33,0.00,40.00,16,8,23,0.00
2013-4-24,63,47,36,56,44,35,98,92,55,0.00,40.00,15,7,23,17.93
2013-4-25,52,42,32,45,35,31,98,77,45,0.00,40.00,12,5,29,0.00
2013-4-26,61,47,33,37,30,26,96,59,27,0.00,40.00,7,2,13,0.00
2013-4-27,73,56,41,43,35,32,80,48,25,0.00,40.00,9,4,20,0.00
2013-4-28,57,55,50,56,48,-100,96,82,52,0.00,40.00,12,6,19,12.86
2013-4-29,69,60,56,59,55,52,96,83,57,0.00,40.00,11,4,17,2.24
2013-4-30,76,65,53,58,54,51,96,70,43,0.00,40.00,11,6,20,0.00
2013-5-1,81,68,56,57,54,51,89,62,38,0.00,40.00,11,6,17,0.00
2013-5-2,80,68,58,51,44,38,58,42,32,0.00,40.00,12,6,19,0.00
2013-5-3,79,68,57,46,41,37,54,39,26,0.00,40.00,12,7,24,0.00
2013-5-4,74,64,54,45,42,37,59,45,30,0.00,40.00,12,7,21,0.00
2013-5-5,75,64,54,45,40,30,64,43,25,0.00,40.00,15,6,24,0.00
2013-5-6,76,64,52,53,45,30,74,50,31,0.00,40.00,11,5,18,0.00
2013-5-7,74,65,57,59,56,52,91,71,47,0.00,40.00,9,3,14,0.00
2013-5-8,74,64,56,58,54,50,95,72,47,0.00,40.00,9,3,17,0.00
2013-5-9,80,67,56,58,48,36,96,57,22,0.00,40.00,9,2,16,0.00
2013-5-10,75,64,53,63,56,-100,96,80,32,0.00,40.00,13,6,25,3.30
2013-5-11,56,49,44,52,47,44,97,93,78,0.00,40.00,12,4,27,2.24
2013-5-12,50,44,37,44,31,-100,95,66,41,0.00,40.00,13,5,22,0.00
2013-5-13,51,43,35,33,28,22,82,56,34,0.00,40.00,11,4,20,0.00
2013-5-14,68,54,39,44,35,26,65,50,38,0.00,40.00,17,9,26,0.00
2013-5-15,87,72,59,61,54,42,81,55,32,0.00,40.00,12,6,24,0.00
2013-5-16,82,66,57,53,30,-100,80,49,27,0.00,40.00,8,3,16,0.00
2013-5-17,79,66,55,54,43,-100,80,51,40,0.00,40.00,10,3,16,0.00
2013-5-18,86,71,58,59,52,40,68,51,33,0.00,40.00,9,4,16,0.00
2013-5-19,84,73,64,67,63,55,94,71,50,0.00,40.00,12,6,17,0.00
2013-5-20,83,76,66,73,69,65,95,81,66,0.00,40.00,15,7,22,0.00
2013-5-21,88,78,71,71,66,60,94,71,41,0.00,40.00,15,7,22,0.00
2013-5-22,84,76,66,68,64,61,95,67,49,0.00,40.00,17,7,27,0.00
2013-5-23,75,60,42,65,57,42,97,90,58,0.00,40.00,14,6,29,5.04
2013-5-24,46,43,37,42,37,33,97,79,62,0.00,40.00,13,7,22,5.04
2013-5-25,60,48,33,44,35,31,97,65,37,0.00,40.00,13,4,19,0.00
2013-5-26,65,52,35,45,35,30,96,59,29,0.00,40.00,9,2,17,0.00
2013-5-27,58,52,41,53,45,34,96,78,42,0.00,40.00,9,4,16,4.99
2013-5-28,84,69,53,68,61,52,97,78,52,0.00,40.00,12,6,24,3.34
2013-5-29,89,78,72,70,64,61,87,62,42,0.00,40.00,12,5,21,0.00
2013-5-30,89,79,71,69,65,60,84,62,40,0.00,40.00,12,6,21,0.00
2013-5-31,87,75,66,71,67,65,96,76,51,0.00,40.00,12,6,22,4.49
2013-6-1,83,74,67,71,68,65,96,81,64,0.00,40.00,15,8,27,0.00
2013-6-2,78,70,63,66,60,-100,96,76,51,0.00,40.00,10,5,19,0.55
2013-6-3,63,57,49,58,47,36,90,71,38,0.00,40.00,10,5,17,0.00
2013-6-4,68,58,46,47,43,38,95,60,39,0.00,40.00,9,3,14,0.00
2013-6-5,75,63,49,53,49,43,91,62,41,0.00,40.00,12,3,17,0.00
2013-6-6,61,58,55,60,56,49,97,91,63,0.00,40.00,9,3,16,11.18
2013-6-7,60,56,55,57,55,54,97,95,90,0.00,40.00,7,4,12,0.00
2013-6-8,73,62,56,58,55,54,96,81,54,0.00,40.00,6,2,9,0.00
2013-6-9,80,69,56,65,59,53,90,70,47,0.00,40.00,11,4,16,1.69
2013-6-10,73,68,64,72,67,63,96,93,78,0.00,40.00,8,4,13,6.73
2013-6-11,80,70,64,70,65,63,96,85,60,0.00,40.00,9,4,16,2.24
2013-6-12,81,74,66,73,68,65,95,83,63,0.00,40.00,13,2,18,0.00
2013-6-13,72,66,61,70,61,54,97,84,53,0.00,40.00,15,8,26,2.75
2013-6-14,70,62,55,60,57,52,95,82,54,0.00,40.00,9,4,16,0.00
2013-6-15,82,66,51,65,54,47,96,69,34,0.00,40.00,6,2,14,1.10
2013-6-16,82,72,65,70,65,60,96,79,56,0.00,40.00,11,5,21,1.10
2013-6-17,83,72,65,69,64,58,96,77,46,0.00,40.00,10,3,16,0.00
2013-6-18,74,68,60,64,59,52,90,76,58,0.00,40.00,14,6,22,0.00
2013-6-19,73,64,51,55,49,45,95,63,38,0.00,40.00,11,3,17,0.00
2013-6-20,80,66,54,56,51,48,85,62,38,0.00,40.00,10,4,16,0.00
2013-6-22,92,86,79,73,71,69,74,60,51,0.00,40.00,12,5,18,0.00
2013-6-23,92,82,72,72,68,65,90,66,43,0.00,40.00,10,4,16,0.00
2013-6-24,91,78,69,71,67,65,89,70,44,0.00,40.00,7,3,14,0.00
2013-6-25,92,78,67,74,71,65,97,79,50,0.00,40.00,13,5,22,0.55
2013-6-26,84,74,66,73,69,65,97,86,65,0.00,40.00,9,3,17,5.04
2013-6-27,83,72,68,72,69,67,96,90,63,0.00,40.00,9,3,12,11.80
2013-6-28,80,69,63,70,64,60,97,86,52,0.00,40.00,9,2,16,0.00
2013-6-29,76,69,62,69,64,61,96,86,68,0.00,40.00,8,2,12,1.10
2013-6-30,73,68,63,68,64,62,96,88,71,0.00,40.00,10,3,14,3.93
2013-7-1,73,67,64,69,65,62,96,93,84,0.00,40.00,6,2,9,1.65
2013-7-2,81,69,62,71,66,61,96,90,61,0.00,40.00,7,2,12,0.00
2013-7-3,85,74,64,77,69,63,97,85,58,0.00,40.00,8,4,14,0.00
2013-7-4,80,75,69,72,70,67,96,85,67,0.00,40.00,14,6,19,1.10
2013-7-5,80,73,69,74,69,68,96,90,73,0.00,40.00,7,2,17,3.93
2013-7-6,86,76,69,75,70,68,96,85,61,0.00,40.00,11,4,16,0.00
2013-7-7,81,74,68,71,68,64,95,81,60,0.00,40.00,8,3,15,0.00
2013-7-8,87,72,66,76,67,64,96,85,59,0.00,40.00,9,2,18,6.77
2013-7-9,89,76,69,78,72,68,96,89,65,0.00,40.00,10,4,18,1.10
2013-7-10,89,71,68,80,67,-100,96,91,74,0.00,40.00,14,4,25,6.14
2013-7-11,75,70,65,68,61,55,95,75,49,0.00,40.00,9,4,19,0.00
2013-7-12,77,68,59,68,63,58,96,83,53,0.00,40.00,10,3,17,0.00
2013-7-13,86,76,63,71,66,61,94,73,50,0.00,40.00,8,2,12,0.00
2013-7-14,91,80,70,76,72,68,94,77,52,0.00,40.00,9,3,14,0.00
2013-7-15,94,81,74,78,74,71,94,80,50,0.00,40.00,6,2,11,0.00
2013-7-16,91,82,75,81,76,73,94,82,62,0.00,40.00,6,3,17,0.00
2013-7-17,93,83,75,78,75,71,95,78,50,0.00,40.00,7,2,14,0.00
2013-7-18,94,85,77,78,75,73,94,74,52,0.00,40.00,6,2,11,0.00
2013-7-19,94,84,77,78,76,73,92,77,52,0.00,40.00,11,5,18,0.00
2013-7-20,83,75,67,76,72,66,97,90,72,0.00,40.00,14,3,21,12.96
2013-7-21,83,74,67,73,68,65,96,83,61,0.00,40.00,9,2,12,0.00
2013-7-22,75,69,65,74,67,63,96,91,83,0.00,40.00,6,2,10,3.34
2013-7-23,86,74,64,75,68,63,97,84,57,0.00,40.00,12,4,21,0.00
2013-7-24,69,65,57,64,56,52,91,72,57,0.00,40.00,13,6,20,0.00
2013-7-25,77,64,55,55,52,49,95,69,42,0.00,40.00,11,2,15,0.00
2013-7-26,81,68,56,61,56,54,95,69,42,0.00,40.00,11,3,16,0.00
2013-7-27,71,67,64,67,64,61,96,89,75,0.00,40.00,14,5,19,6.13
2013-7-28,72,63,55,62,54,49,96,74,47,0.00,40.00,9,2,19,0.00
2013-7-29,71,61,54,61,56,52,96,84,52,0.00,40.00,4,2,13,0.00
2013-7-30,79,66,57,62,59,56,97,78,45,0.00,40.00,7,2,10,0.00
2013-7-31,79,70,63,67,64,61,94,81,62,0.00,40.00,10,4,14,0.00
2013-8-1,80,70,65,67,63,57,97,80,49,0.00,40.00,9,3,14,2.20
2013-8-2,74,68,59,66,60,55,95,79,55,0.00,40.00,9,3,17,0.55
2013-8-3,79,72,63,67,60,52,96,69,39,0.00,40.00,9,3,14,0.00
2013-8-4,72,65,58,61,57,52,96,75,51,0.00,40.00,9,3,17,0.00
2013-8-5,76,64,56,61,55,50,94,75,43,0.00,40.00,5,1,10,0.00
2013-8-6,81,70,59,63,59,57,94,70,47,0.00,40.00,9,4,13,0.00
2013-8-7,80,72,67,72,67,62,96,85,69,0.00,40.00,11,6,17,0.55
2013-8-8,85,74,70,75,72,68,96,92,69,0.00,40.00,9,4,12,3.39
2013-8-9,79,70,64,68,60,49,97,73,37,0.00,40.00,7,3,13,0.00
2013-8-10,80,72,63,65,59,54,94,65,49,0.00,40.00,7,2,13,0.00
2013-8-11,83,71,62,64,60,57,92,68,43,0.00,40.00,9,2,12,0.00
2013-8-16,80,63,54,58,47,-100,96,68,38,0.00,40.00,6,2,11,0.00
2013-8-17,82,67,55,59,56,54,96,71,40,0.00,40.00,7,2,14,0.00
2013-8-18,78,67,56,66,58,-100,96,78,52,0.00,40.00,7,2,12,0.00
2013-8-19,83,65,62,67,45,-100,97,76,39,0.00,40.00,7,2,12,0.00
2013-8-20,88,73,65,65,58,-100,88,66,39,0.00,40.00,6,2,11,0.00
2013-8-21,88,77,65,69,64,61,92,67,41,0.00,40.00,9,4,12,0.00
2013-8-22,85,76,69,74,70,67,96,81,61,0.00,40.00,6,4,12,0.00
2013-8-23,82,74,61,71,61,48,96,68,35,0.00,40.00,9,3,18,0.00
2013-8-24,84,68,58,59,54,50,92,65,34,0.00,40.00,8,2,12,0.00
2013-8-25,87,71,58,61,56,-100,96,64,37,0.00,40.00,7,3,13,0.00
2013-8-26,87,78,68,70,64,59,78,63,49,0.00,40.00,7,3,14,0.00
2013-8-27,78,74,70,74,71,69,97,91,79,0.00,40.00,6,2,12,1.69
2013-8-28,77,75,71,74,72,69,96,93,89,0.00,40.00,12,4,16,0.00
2013-8-29,87,76,69,74,70,66,96,84,50,0.00,40.00,9,2,13,0.00
2013-8-30,89,78,66,72,68,65,96,75,49,0.00,40.00,7,3,12,0.00
2013-8-31,87,76,70,74,71,68,95,83,55,0.00,40.00,7,2,12,0.00
2013-9-1,87,74,69,74,68,-100,96,86,60,0.00,40.00,7,1,12,0.00
2013-9-2,79,73,67,74,68,60,96,86,60,0.00,40.00,9,3,16,0.00
2013-9-3,67,63,57,62,58,54,94,81,70,0.00,40.00,7,4,12,0.00
2013-9-4,80,66,56,60,57,55,95,74,44,0.00,40.00,6,2,14,0.00
2013-9-5,70,65,54,64,56,45,93,72,40,0.00,40.00,9,3,16,0.00
2013-9-6,76,62,49,56,49,41,96,69,27,0.00,40.00,8,2,10,0.00
2013-9-7,82,70,56,71,59,49,95,70,46,0.00,40.00,6,2,10,1.69
2013-9-8,75,68,59,69,60,-100,95,81,64,0.00,40.00,9,3,16,0.00
2013-9-9,81,68,56,74,64,52,91,84,70,0.00,40.00,10,4,14,0.00
2013-9-10,97,84,75,77,73,70,91,72,43,0.00,40.00,9,5,18,0.00
2013-9-11,94,82,76,77,73,68,91,75,45,0.00,40.00,8,4,14,0.00
2013-9-12,76,70,60,73,67,59,96,91,62,0.00,40.00,9,2,13,6.17
2013-9-15,68,56,50,59,48,-100,96,82,55,0.00,40.00,6,3,12,2.24
2013-9-16,65,59,51,58,55,49,97,86,65,0.00,40.00,10,3,16,0.00
2013-9-17,71,57,46,52,46,41,96,71,37,0.00,40.00,6,3,11,0.00
2013-9-18,57,54,52,52,48,46,86,79,66,0.00,40.00,7,4,11,0.00
2013-9-19,78,68,61,69,65,60,96,90,71,0.00,40.00,11,6,17,0.00
2013-9-20,83,73,66,74,69,65,96,88,71,0.00,40.00,12,7,22,2.79
2013-9-21,70,64,60,67,62,56,97,91,63,0.00,40.00,9,3,16,10.67
2013-10-18,64,53,43,47,44,42,95,73,46,0.00,40.00,7,4,19,0.00
2013-10-19,53,45,41,46,44,40,97,93,73,0.00,40.00,7,2,13,2.20
2013-10-20,61,48,39,41,36,-100,95,68,42,0.00,40.00,9,5,17,0.00
2013-10-21,65,54,48,51,43,40,96,67,41,0.00,40.00,13,7,23,7.87
2013-10-22,51,43,35,48,33,27,97,68,42,0.00,40.00,9,3,17,0.00
2013-10-23,45,40,36,42,35,29,97,85,55,0.00,40.00,9,2,17,6.76
2013-10-24,45,37,32,36,32,30,96,85,57,0.00,40.00,6,2,16,4.52
2013-11-17,62,58,52,59,55,40,97,87,62,0.00,40.00,22,15,35,1.10
2013-11-18,51,43,36,40,34,26,83,71,62,0.00,40.00,14,8,31,0.00
2013-11-19,38,35,28,26,25,24,89,67,57,0.00,40.00,9,4,17,0.00
2013-11-20,47,37,26,26,20,14,93,56,30,0.00,40.00,11,5,23,0.00
2013-11-21,46,42,39,44,32,15,94,70,36,0.00,40.00,12,7,20,1.65
2013-11-22,49,44,35,49,43,28,98,94,75,0.00,40.00,12,5,22,11.75
2013-11-23,35,28,20,28,18,-100,93,70,47,0.00,40.00,13,7,26,5.59
2013-11-27,32,27,24,31,22,13,98,79,59,0.00,40.00,12,8,24,10.62
2013-11-28,28,24,17,22,16,11,86,72,61,0.00,40.00,9,4,16,4.49
2013-11-29,36,26,17,24,20,16,94,77,50,0.00,40.00,4,2,11,0.55
2013-11-30,39,32,26,28,21,-100,77,69,57,0.00,40.00,11,7,21,0.00
2013-12-1,42,38,35,33,30,28,86,72,64,0.00,40.00,8,4,12,0.00
2013-12-2,40,36,32,35,33,31,97,88,70,0.00,40.00,6,2,9,0.00
2013-12-3,39,35,32,35,33,31,96,90,82,0.00,40.00,5,2,10,0.00
2013-12-8,28,24,17,27,18,13,95,78,58,0.00,40.00,8,3,18,0.55
2013-12-9,33,30,24,33,26,18,98,86,73,0.00,40.00,11,6,25,3.94
2013-12-10,27,22,19,18,12,4,78,64,38,0.00,40.00,11,5,27,1.65
2013-12-11,25,20,16,21,16,11,96,83,67,0.00,40.00,9,4,18,23.00
2013-12-12,19,15,7,10,4,-1,89,64,41,0.00,40.00,10,5,19,4.48
2013-12-13,33,24,17,19,12,2,75,59,48,0.00,40.00,7,3,17,0.00
2013-12-14,33,28,24,33,25,-100,98,93,75,0.00,40.00,6,3,12,17.43